sensor_id;sensor_type;location;lat;lon;timestamp;pressure;altitude;pressure_sealevel;temperature
65316;BMP280;51920;53.952;10.292;2022-12-29T00:02:15;99531.66;;;8.20
65316;BMP280;51920;53.952;10.292;2022-12-29T00:04:40;99521.63;;;8.21
65316;BMP280;51920;53.952;10.292;2022-12-29T00:07:06;99529.72;;;8.28
65316;BMP280;51920;53.952;10.292;2022-12-29T00:09:33;99518.16;;;8.31
65316;BMP280;51920;53.952;10.292;2022-12-29T00:11:59;99517.38;;;8.34
65316;BMP280;51920;53.952;10.292;2022-12-29T00:14:26;99523.13;;;8.43
65316;BMP280;51920;53.952;10.292;2022-12-29T00:17:10;99524.69;;;8.37
65316;BMP280;51920;53.952;10.292;2022-12-29T00:19:36;99516.59;;;8.37
65316;BMP280;51920;53.952;10.292;2022-12-29T00:22:20;99512.34;;;8.43
65316;BMP280;51920;53.952;10.292;2022-12-29T00:25:04;99512.31;;;8.51
65316;BMP280;51920;53.952;10.292;2022-12-29T00:27:30;99506.13;;;8.54
65316;BMP280;51920;53.952;10.292;2022-12-29T00:30:18;99491.09;;;8.53
65316;BMP280;51920;53.952;10.292;2022-12-29T00:33:13;99506.88;;;8.61
65316;BMP280;51920;53.952;10.292;2022-12-29T00:36:15;99502.97;;;8.66
65316;BMP280;51920;53.952;10.292;2022-12-29T00:38:45;99497.56;;;8.66
65316;BMP280;51920;53.952;10.292;2022-12-29T00:41:30;99493.72;;;8.67
65316;BMP280;51920;53.952;10.292;2022-12-29T00:44:14;99491.84;;;8.57
65316;BMP280;51920;53.952;10.292;2022-12-29T00:46:41;99492.97;;;8.63
65316;BMP280;51920;53.952;10.292;2022-12-29T00:49:08;99491.03;;;8.67
65316;BMP280;51920;53.952;10.292;2022-12-29T00:51:54;99487.50;;;8.77
65316;BMP280;51920;53.952;10.292;2022-12-29T00:54:20;99488.34;;;8.63
65316;BMP280;51920;53.952;10.292;2022-12-29T00:56:47;99489.88;;;8.72
65316;BMP280;51920;53.952;10.292;2022-12-29T00:59:12;99492.09;;;8.84
65316;BMP280;51920;53.952;10.292;2022-12-29T01:01:38;99486.69;;;8.87
65316;BMP280;51920;53.952;10.292;2022-12-29T01:04:04;99475.94;;;8.77
65316;BMP280;51920;53.952;10.292;2022-12-29T01:06:30;99478.97;;;8.86
65316;BMP280;51920;53.952;10.292;2022-12-29T01:08:56;99474.75;;;8.81
65316;BMP280;51920;53.952;10.292;2022-12-29T01:11:40;99472.00;;;8.85
65316;BMP280;51920;53.952;10.292;2022-12-29T01:14:06;99476.19;;;8.97
65316;BMP280;51920;53.952;10.292;2022-12-29T01:16:32;99471.16;;;8.99
65316;BMP280;51920;53.952;10.292;2022-12-29T01:18:58;99471.94;;;8.99
65316;BMP280;51920;53.952;10.292;2022-12-29T01:21:24;99471.25;;;8.88
65316;BMP280;51920;53.952;10.292;2022-12-29T01:23:50;99471.16;;;8.99
65316;BMP280;51920;53.952;10.292;2022-12-29T01:26:16;99458.13;;;8.86
65316;BMP280;51920;53.952;10.292;2022-12-29T01:28:42;99471.22;;;8.92
65316;BMP280;51920;53.952;10.292;2022-12-29T01:31:12;99455.78;;;8.88
65316;BMP280;51920;53.952;10.292;2022-12-29T01:33:39;99470.78;;;8.97
65316;BMP280;51920;53.952;10.292;2022-12-29T01:36:07;99462.19;;;9.13
65316;BMP280;51920;53.952;10.292;2022-12-29T01:38:34;99456.44;;;9.10
65316;BMP280;51920;53.952;10.292;2022-12-29T01:41:00;99465.31;;;9.11
65316;BMP280;51920;53.952;10.292;2022-12-29T01:46:26;99452.50;;;9.19
65316;BMP280;51920;53.952;10.292;2022-12-29T01:49:08;99448.66;;;9.16
65316;BMP280;51920;53.952;10.292;2022-12-29T01:51:45;99438.63;;;9.17
65316;BMP280;51920;53.952;10.292;2022-12-29T01:54:22;99431.69;;;9.12
65316;BMP280;51920;53.952;10.292;2022-12-29T01:56:51;99434.44;;;9.05
65316;BMP280;51920;53.952;10.292;2022-12-29T01:59:20;99437.84;;;9.16
65316;BMP280;51920;53.952;10.292;2022-12-29T02:01:48;99434.66;;;9.28
65316;BMP280;51920;53.952;10.292;2022-12-29T02:04:14;99427.03;;;9.16
65316;BMP280;51920;53.952;10.292;2022-12-29T02:06:45;99429.28;;;9.25
65316;BMP280;51920;53.952;10.292;2022-12-29T02:09:11;99428.56;;;9.17
65316;BMP280;51920;53.952;10.292;2022-12-29T02:11:38;99422.38;;;9.20
65316;BMP280;51920;53.952;10.292;2022-12-29T02:14:11;99429.69;;;9.23
65316;BMP280;51920;53.952;10.292;2022-12-29T02:16:44;99415.38;;;9.26
65316;BMP280;51920;53.952;10.292;2022-12-29T02:25:14;99415.31;;;9.34
65316;BMP280;51920;53.952;10.292;2022-12-29T02:30:25;99406.88;;;9.24
65316;BMP280;51920;53.952;10.292;2022-12-29T02:33:03;99398.38;;;9.26
65316;BMP280;51920;53.952;10.292;2022-12-29T02:41:16;99386.69;;;9.40
65316;BMP280;51920;53.952;10.292;2022-12-29T02:46:53;99385.25;;;9.28
65316;BMP280;51920;53.952;10.292;2022-12-29T02:51:53;99365.88;;;9.33
65316;BMP280;51920;53.952;10.292;2022-12-29T02:54:22;99364.44;;;9.25
65316;BMP280;51920;53.952;10.292;2022-12-29T02:57:11;99366.28;;;9.31
65316;BMP280;51920;53.952;10.292;2022-12-29T02:59:37;99361.66;;;9.32
65316;BMP280;51920;53.952;10.292;2022-12-29T03:04:50;99366.19;;;9.46
65316;BMP280;51920;53.952;10.292;2022-12-29T03:07:40;99372.09;;;9.34
65316;BMP280;51920;53.952;10.292;2022-12-29T03:11:20;99364.31;;;9.39
65316;BMP280;51920;53.952;10.292;2022-12-29T03:13:40;99359.50;;;9.54
65316;BMP280;51920;53.952;10.292;2022-12-29T03:19:04;99355.31;;;9.49
65316;BMP280;51920;53.952;10.292;2022-12-29T03:21:37;99351.19;;;9.38
65316;BMP280;51920;53.952;10.292;2022-12-29T03:24:34;99358.97;;;9.32
65316;BMP280;51920;53.952;10.292;2022-12-29T03:27:02;99347.38;;;9.31
65316;BMP280;51920;53.952;10.292;2022-12-29T03:29:39;99351.88;;;9.45
65316;BMP280;51920;53.952;10.292;2022-12-29T03:32:08;99342.56;;;9.50
65316;BMP280;51920;53.952;10.292;2022-12-29T03:34:35;99329.78;;;9.54
65316;BMP280;51920;53.952;10.292;2022-12-29T03:37:06;99333.34;;;9.44
65316;BMP280;51920;53.952;10.292;2022-12-29T03:39:33;99331.00;;;9.49
65316;BMP280;51920;53.952;10.292;2022-12-29T03:42:02;99319.47;;;9.42
65316;BMP280;51920;53.952;10.292;2022-12-29T03:44:42;99328.66;;;9.51
65316;BMP280;51920;53.952;10.292;2022-12-29T03:47:14;99319.41;;;9.49
65316;BMP280;51920;53.952;10.292;2022-12-29T03:49:40;99313.28;;;9.45
65316;BMP280;51920;53.952;10.292;2022-12-29T03:52:07;99305.63;;;9.40
65316;BMP280;51920;53.952;10.292;2022-12-29T03:54:36;99317.06;;;9.51
65316;BMP280;51920;53.952;10.292;2022-12-29T03:57:02;99320.25;;;9.46
65316;BMP280;51920;53.952;10.292;2022-12-29T03:59:57;99310.06;;;9.57
65316;BMP280;51920;53.952;10.292;2022-12-29T04:02:22;99317.75;;;9.59
65316;BMP280;51920;53.952;10.292;2022-12-29T04:04:49;99306.91;;;9.62
65316;BMP280;51920;53.952;10.292;2022-12-29T04:07:15;99313.91;;;9.56
65316;BMP280;51920;53.952;10.292;2022-12-29T04:09:41;99303.06;;;9.60
65316;BMP280;51920;53.952;10.292;2022-12-29T04:12:09;99303.00;;;9.63
65316;BMP280;51920;53.952;10.292;2022-12-29T04:14:35;99290.78;;;9.55
65316;BMP280;51920;53.952;10.292;2022-12-29T04:17:00;99299.56;;;9.63
65316;BMP280;51920;53.952;10.292;2022-12-29T04:19:26;99288.22;;;9.75
65316;BMP280;51920;53.952;10.292;2022-12-29T04:21:51;99288.50;;;9.81
65316;BMP280;51920;53.952;10.292;2022-12-29T04:24:17;99278.03;;;9.83
65316;BMP280;51920;53.952;10.292;2022-12-29T04:26:42;99292.00;;;9.78
65316;BMP280;51920;53.952;10.292;2022-12-29T04:29:28;99291.97;;;9.85
65316;BMP280;51920;53.952;10.292;2022-12-29T04:32:23;99278.84;;;9.83
65316;BMP280;51920;53.952;10.292;2022-12-29T04:34:51;99274.53;;;9.86
65316;BMP280;51920;53.952;10.292;2022-12-29T04:37:17;99277.25;;;9.86
65316;BMP280;51920;53.952;10.292;2022-12-29T04:39:43;99277.31;;;9.79
65316;BMP280;51920;53.952;10.292;2022-12-29T04:42:08;99265.06;;;9.70
65316;BMP280;51920;53.952;10.292;2022-12-29T04:44:34;99258.16;;;9.69
65316;BMP280;51920;53.952;10.292;2022-12-29T04:47:09;99260.41;;;9.75
65316;BMP280;51920;53.952;10.292;2022-12-29T04:49:51;99269.28;;;9.75
65316;BMP280;51920;53.952;10.292;2022-12-29T04:52:39;99249.13;;;9.80
65316;BMP280;51920;53.952;10.292;2022-12-29T04:55:08;99251.78;;;9.83
65316;BMP280;51920;53.952;10.292;2022-12-29T04:57:33;99253.34;;;9.81
65316;BMP280;51920;53.952;10.292;2022-12-29T04:59:59;99247.59;;;9.79
65316;BMP280;51920;53.952;10.292;2022-12-29T05:02:25;99241.94;;;9.69
65316;BMP280;51920;53.952;10.292;2022-12-29T05:04:50;99247.16;;;9.84
65316;BMP280;51920;53.952;10.292;2022-12-29T05:07:16;99243.97;;;9.89
65316;BMP280;51920;53.952;10.292;2022-12-29T05:09:43;99246.78;;;9.82
65316;BMP280;51920;53.952;10.292;2022-12-29T05:12:09;99246.31;;;9.87
65316;BMP280;51920;53.952;10.292;2022-12-29T05:14:40;99236.78;;;9.79
65316;BMP280;51920;53.952;10.292;2022-12-29T05:17:06;99240.81;;;9.94
65316;BMP280;51920;53.952;10.292;2022-12-29T05:19:32;99240.06;;;9.90
65316;BMP280;51920;53.952;10.292;2022-12-29T05:21:58;99243.47;;;9.98
65316;BMP280;51920;53.952;10.292;2022-12-29T05:24:23;99239.72;;;9.88
65316;BMP280;51920;53.952;10.292;2022-12-29T05:26:51;99235.72;;;9.72
65316;BMP280;51920;53.952;10.292;2022-12-29T05:29:30;99238.69;;;9.82
65316;BMP280;51920;53.952;10.292;2022-12-29T05:31:56;99237.13;;;9.81
65316;BMP280;51920;53.952;10.292;2022-12-29T05:34:21;99237.88;;;9.81
65316;BMP280;51920;53.952;10.292;2022-12-29T05:36:47;99246.00;;;9.81
65316;BMP280;51920;53.952;10.292;2022-12-29T05:39:13;99248.06;;;9.73
65316;BMP280;51920;53.952;10.292;2022-12-29T05:41:41;99260.34;;;9.78
65316;BMP280;51920;53.952;10.292;2022-12-29T05:44:38;99257.06;;;9.63
65316;BMP280;51920;53.952;10.292;2022-12-29T05:47:19;99251.97;;;9.69
65316;BMP280;51920;53.952;10.292;2022-12-29T05:49:54;99253.97;;;9.65
65316;BMP280;51920;53.952;10.292;2022-12-29T05:52:39;99256.81;;;9.54
65316;BMP280;51920;53.952;10.292;2022-12-29T05:55:05;99256.03;;;9.53
65316;BMP280;51920;53.952;10.292;2022-12-29T05:57:32;99255.91;;;9.64
65316;BMP280;51920;53.952;10.292;2022-12-29T06:00:07;99257.53;;;9.58
65316;BMP280;51920;53.952;10.292;2022-12-29T06:02:40;99249.69;;;9.67
65316;BMP280;51920;53.952;10.292;2022-12-29T06:05:06;99247.22;;;9.77
65316;BMP280;51920;53.952;10.292;2022-12-29T06:07:33;99244.88;;;9.79
65316;BMP280;51920;53.952;10.292;2022-12-29T06:09:59;99243.44;;;9.70
65316;BMP280;51920;53.952;10.292;2022-12-29T06:12:26;99252.19;;;9.82
65316;BMP280;51920;53.952;10.292;2022-12-29T06:14:53;99248.41;;;9.76
65316;BMP280;51920;53.952;10.292;2022-12-29T06:17:19;99225.91;;;9.82
65316;BMP280;51920;53.952;10.292;2022-12-29T06:19:44;99240.91;;;9.87
65316;BMP280;51920;53.952;10.292;2022-12-29T06:22:09;99241.41;;;9.78
65316;BMP280;51920;53.952;10.292;2022-12-29T06:24:39;99255.25;;;9.84
65316;BMP280;51920;53.952;10.292;2022-12-29T06:27:04;99264.06;;;9.88
65316;BMP280;51920;53.952;10.292;2022-12-29T06:29:30;99259.31;;;9.96
65316;BMP280;51920;53.952;10.292;2022-12-29T06:31:56;99259.75;;;9.94
65316;BMP280;51920;53.952;10.292;2022-12-29T06:34:26;99259.00;;;9.90
65316;BMP280;51920;53.952;10.292;2022-12-29T06:36:51;99255.50;;;9.93
65316;BMP280;51920;53.952;10.292;2022-12-29T06:39:17;99255.19;;;9.87
65316;BMP280;51920;53.952;10.292;2022-12-29T06:41:53;99252.81;;;9.93
65316;BMP280;51920;53.952;10.292;2022-12-29T06:44:39;99252.47;;;9.87
65316;BMP280;51920;53.952;10.292;2022-12-29T06:47:08;99255.50;;;9.93
65316;BMP280;51920;53.952;10.292;2022-12-29T06:49:34;99259.19;;;10.06
65316;BMP280;51920;53.952;10.292;2022-12-29T06:51:59;99250.69;;;10.04
65316;BMP280;51920;53.952;10.292;2022-12-29T06:54:26;99246.06;;;10.05
65316;BMP280;51920;53.952;10.292;2022-12-29T06:56:51;99247.28;;;10.00
65316;BMP280;51920;53.952;10.292;2022-12-29T06:59:16;99246.06;;;10.05
65316;BMP280;51920;53.952;10.292;2022-12-29T07:01:42;99236.22;;;10.14
65316;BMP280;51920;53.952;10.292;2022-12-29T07:04:07;99228.56;;;9.86
65316;BMP280;51920;53.952;10.292;2022-12-29T07:06:33;99227.31;;;9.94
65316;BMP280;51920;53.952;10.292;2022-12-29T07:08:58;99233.88;;;9.93
65316;BMP280;51920;53.952;10.292;2022-12-29T07:11:24;99226.94;;;9.92
65316;BMP280;51920;53.952;10.292;2022-12-29T07:13:49;99227.06;;;9.85
65316;BMP280;51920;53.952;10.292;2022-12-29T07:16:14;99223.38;;;9.95
65316;BMP280;51920;53.952;10.292;2022-12-29T07:18:40;99226.16;;;9.91
65316;BMP280;51920;53.952;10.292;2022-12-29T07:21:05;99235.47;;;9.90
65316;BMP280;51920;53.952;10.292;2022-12-29T07:23:31;99237.88;;;9.81
65316;BMP280;51920;53.952;10.292;2022-12-29T07:26:01;99243.97;;;9.89
65316;BMP280;51920;53.952;10.292;2022-12-29T07:28:26;99238.88;;;9.94
65316;BMP280;51920;53.952;10.292;2022-12-29T07:30:52;99233.38;;;9.75
65316;BMP280;51920;53.952;10.292;2022-12-29T07:33:17;99234.53;;;9.73
65316;BMP280;51920;53.952;10.292;2022-12-29T07:35:42;99238.88;;;9.67
65316;BMP280;51920;53.952;10.292;2022-12-29T07:38:08;99253.63;;;9.59
65316;BMP280;51920;53.952;10.292;2022-12-29T07:40:33;99256.97;;;9.70
65316;BMP280;51920;53.952;10.292;2022-12-29T07:42:59;99255.69;;;9.79
65316;BMP280;51920;53.952;10.292;2022-12-29T07:45:31;99267.91;;;9.90
65316;BMP280;51920;53.952;10.292;2022-12-29T07:48:07;99270.56;;;9.94
65316;BMP280;51920;53.952;10.292;2022-12-29T07:50:34;99268.66;;;9.91
65316;BMP280;51920;53.952;10.292;2022-12-29T07:52:59;99264.81;;;9.92
65316;BMP280;51920;53.952;10.292;2022-12-29T07:55:25;99272.38;;;10.01
65316;BMP280;51920;53.952;10.292;2022-12-29T07:57:53;99275.50;;;9.99
65316;BMP280;51920;53.952;10.292;2022-12-29T08:00:18;99287.84;;;10.00
65316;BMP280;51920;53.952;10.292;2022-12-29T08:02:45;99277.84;;;9.97
65316;BMP280;51920;53.952;10.292;2022-12-29T08:05:10;99283.13;;;10.04
65316;BMP280;51920;53.952;10.292;2022-12-29T08:07:36;99280.97;;;9.96
65316;BMP280;51920;53.952;10.292;2022-12-29T08:10:01;99279.34;;;10.02
65316;BMP280;51920;53.952;10.292;2022-12-29T08:12:26;99274.56;;;10.09
65316;BMP280;51920;53.952;10.292;2022-12-29T08:14:52;99283.19;;;10.28
65316;BMP280;51920;53.952;10.292;2022-12-29T08:17:17;99278.56;;;10.28
65316;BMP280;51920;53.952;10.292;2022-12-29T08:19:43;99283.72;;;10.19
65316;BMP280;51920;53.952;10.292;2022-12-29T08:22:08;99292.34;;;10.10
65316;BMP280;51920;53.952;10.292;2022-12-29T08:24:34;99292.25;;;10.18
65316;BMP280;51920;53.952;10.292;2022-12-29T08:27:00;99289.25;;;10.12
65316;BMP280;51920;53.952;10.292;2022-12-29T08:29:25;99303.34;;;9.96
65316;BMP280;51920;53.952;10.292;2022-12-29T08:31:50;99299.72;;;10.10
65316;BMP280;51920;53.952;10.292;2022-12-29T08:34:16;99304.13;;;9.97
65316;BMP280;51920;53.952;10.292;2022-12-29T08:36:41;99309.13;;;9.98
65316;BMP280;51920;53.952;10.292;2022-12-29T08:39:06;99308.59;;;10.10
65316;BMP280;51920;53.952;10.292;2022-12-29T08:41:33;99305.25;;;9.99
65316;BMP280;51920;53.952;10.292;2022-12-29T08:43:58;99312.50;;;10.06
65316;BMP280;51920;53.952;10.292;2022-12-29T08:46:24;99310.19;;;10.04
65316;BMP280;51920;53.952;10.292;2022-12-29T08:48:49;99320.56;;;10.09
65316;BMP280;51920;53.952;10.292;2022-12-29T08:51:15;99306.69;;;10.07
65316;BMP280;51920;53.952;10.292;2022-12-29T08:53:40;99309.03;;;10.05
65316;BMP280;51920;53.952;10.292;2022-12-29T08:56:08;99320.84;;;10.19
65316;BMP280;51920;53.952;10.292;2022-12-29T08:58:42;99300.34;;;10.18
65316;BMP280;51920;53.952;10.292;2022-12-29T09:01:09;99306.06;;;10.23
65316;BMP280;51920;53.952;10.292;2022-12-29T09:03:34;99305.28;;;10.23
65316;BMP280;51920;53.952;10.292;2022-12-29T09:06:00;99308.47;;;10.18
65316;BMP280;51920;53.952;10.292;2022-12-29T09:08:25;99312.91;;;10.31
65316;BMP280;51920;53.952;10.292;2022-12-29T09:10:51;99319.56;;;10.50
65316;BMP280;51920;53.952;10.292;2022-12-29T09:13:17;99295.63;;;10.92
65316;BMP280;51920;53.952;10.292;2022-12-29T09:15:43;99302.94;;;10.95
65316;BMP280;51920;53.952;10.292;2022-12-29T09:18:09;99292.63;;;10.67
65316;BMP280;51920;53.952;10.292;2022-12-29T09:20:35;99300.00;;;10.39
65316;BMP280;51920;53.952;10.292;2022-12-29T09:23:00;99299.84;;;10.26
65316;BMP280;51920;53.952;10.292;2022-12-29T09:25:27;99307.97;;;10.26
65316;BMP280;51920;53.952;10.292;2022-12-29T09:27:53;99318.81;;;10.23
65316;BMP280;51920;53.952;10.292;2022-12-29T09:30:20;99325.72;;;10.27
65316;BMP280;51920;53.952;10.292;2022-12-29T09:32:46;99316.13;;;10.23
65316;BMP280;51920;53.952;10.292;2022-12-29T09:35:15;99318.72;;;10.30
65316;BMP280;51920;53.952;10.292;2022-12-29T09:37:42;99332.28;;;10.53
65316;BMP280;51920;53.952;10.292;2022-12-29T09:40:30;99326.38;;;10.82
65316;BMP280;51920;53.952;10.292;2022-12-29T09:43:21;99340.03;;;10.75
65316;BMP280;51920;53.952;10.292;2022-12-29T09:46:13;99332.22;;;10.81
65316;BMP280;51920;53.952;10.292;2022-12-29T09:48:44;99332.63;;;11.03
65316;BMP280;51920;53.952;10.292;2022-12-29T09:51:13;99338.44;;;11.21
65316;BMP280;51920;53.952;10.292;2022-12-29T09:53:43;99327.69;;;11.17
65316;BMP280;51920;53.952;10.292;2022-12-29T09:56:18;99333.06;;;10.97
65316;BMP280;51920;53.952;10.292;2022-12-29T09:58:50;99353.44;;;10.82
65316;BMP280;51920;53.952;10.292;2022-12-29T10:03:50;99334.34;;;11.13
65316;BMP280;51920;53.952;10.292;2022-12-29T10:06:24;99347.09;;;11.12
65316;BMP280;51920;53.952;10.292;2022-12-29T10:17:38;99357.94;;;10.45
65316;BMP280;51920;53.952;10.292;2022-12-29T10:20:54;99358.28;;;10.47
65316;BMP280;51920;53.952;10.292;2022-12-29T10:23:40;99351.53;;;10.32
65316;BMP280;51920;53.952;10.292;2022-12-29T10:26:15;99340.72;;;10.32
65316;BMP280;51920;53.952;10.292;2022-12-29T10:28:47;99342.72;;;10.28
65316;BMP280;51920;53.952;10.292;2022-12-29T10:31:33;99335.63;;;10.38
65316;BMP280;51920;53.952;10.292;2022-12-29T10:34:05;99348.44;;;10.33
65316;BMP280;51920;53.952;10.292;2022-12-29T10:36:39;99335.41;;;10.25
65316;BMP280;51920;53.952;10.292;2022-12-29T10:39:16;99349.22;;;10.81
65316;BMP280;51920;53.952;10.292;2022-12-29T10:41:58;99330.84;;;10.92
65316;BMP280;51920;53.952;10.292;2022-12-29T10:44:29;99330.09;;;11.12
65316;BMP280;51920;53.952;10.292;2022-12-29T10:46:59;99315.34;;;10.93
65316;BMP280;51920;53.952;10.292;2022-12-29T10:49:27;99332.06;;;11.31
65316;BMP280;51920;53.952;10.292;2022-12-29T10:51:57;99324.97;;;11.17
65316;BMP280;51920;53.952;10.292;2022-12-29T10:54:36;99334.16;;;11.04
65316;BMP280;51920;53.952;10.292;2022-12-29T11:00:24;99319.91;;;10.76
65316;BMP280;51920;53.952;10.292;2022-12-29T11:03:41;99312.38;;;10.64
65316;BMP280;51920;53.952;10.292;2022-12-29T11:06:23;99325.28;;;10.56
65316;BMP280;51920;53.952;10.292;2022-12-29T11:08:58;99337.03;;;10.69
65316;BMP280;51920;53.952;10.292;2022-12-29T11:11:32;99326.53;;;10.71
65316;BMP280;51920;53.952;10.292;2022-12-29T11:14:07;99309.91;;;10.49
65316;BMP280;51920;53.952;10.292;2022-12-29T11:16:41;99298.59;;;10.31
65316;BMP280;51920;53.952;10.292;2022-12-29T11:19:23;99312.63;;;10.49
65316;BMP280;51920;53.952;10.292;2022-12-29T11:21:49;99290.56;;;10.24
65316;BMP280;51920;53.952;10.292;2022-12-29T11:24:22;99313.22;;;10.37
65316;BMP280;51920;53.952;10.292;2022-12-29T11:26:53;99330.25;;;10.61
65316;BMP280;51920;53.952;10.292;2022-12-29T11:29:27;99313.41;;;10.46
65316;BMP280;51920;53.952;10.292;2022-12-29T11:31:55;99300.13;;;10.32
65316;BMP280;51920;53.952;10.292;2022-12-29T11:34:25;99335.78;;;10.54
65316;BMP280;51920;53.952;10.292;2022-12-29T11:36:54;99291.31;;;10.28
65316;BMP280;51920;53.952;10.292;2022-12-29T11:40:02;99334.38;;;10.66
65316;BMP280;51920;53.952;10.292;2022-12-29T11:42:47;99331.81;;;10.59
65316;BMP280;51920;53.952;10.292;2022-12-29T11:47:44;99333.50;;;10.49
65316;BMP280;51920;53.952;10.292;2022-12-29T11:50:17;99325.50;;;10.65
65316;BMP280;51920;53.952;10.292;2022-12-29T11:52:43;99331.13;;;10.54
65316;BMP280;51920;53.952;10.292;2022-12-29T11:55:19;99339.09;;;10.85
65316;BMP280;51920;53.952;10.292;2022-12-29T11:57:45;99344.00;;;10.70
65316;BMP280;51920;53.952;10.292;2022-12-29T12:00:17;99342.47;;;10.69
65316;BMP280;51920;53.952;10.292;2022-12-29T12:03:03;99328.44;;;10.74
65316;BMP280;51920;53.952;10.292;2022-12-29T12:05:46;99338.66;;;10.67
65316;BMP280;51920;53.952;10.292;2022-12-29T12:08:19;99343.34;;;10.63
65316;BMP280;51920;53.952;10.292;2022-12-29T12:11:08;99343.25;;;10.66
65316;BMP280;51920;53.952;10.292;2022-12-29T12:13:55;99347.66;;;10.60
65316;BMP280;51920;53.952;10.292;2022-12-29T12:16:37;99362.59;;;10.68
65316;BMP280;51920;53.952;10.292;2022-12-29T12:19:21;99352.47;;;10.72
65316;BMP280;51920;53.952;10.292;2022-12-29T12:21:56;99345.41;;;10.78
65316;BMP280;51920;53.952;10.292;2022-12-29T12:24:41;99359.50;;;10.66
65316;BMP280;51920;53.952;10.292;2022-12-29T12:27:20;99337.31;;;10.75
65316;BMP280;51920;53.952;10.292;2022-12-29T12:29:58;99337.50;;;10.88
65316;BMP280;51920;53.952;10.292;2022-12-29T12:38:14;99340.69;;;10.83
65316;BMP280;51920;53.952;10.292;2022-12-29T12:41:20;99344.50;;;10.85
65316;BMP280;51920;53.952;10.292;2022-12-29T12:43:51;99345.44;;;10.75
65316;BMP280;51920;53.952;10.292;2022-12-29T12:52:01;99340.16;;;10.91
65316;BMP280;51920;53.952;10.292;2022-12-29T13:05:29;99362.91;;;10.47
65316;BMP280;51920;53.952;10.292;2022-12-29T13:11:01;99370.94;;;10.27
65316;BMP280;51920;53.952;10.292;2022-12-29T13:16:48;99370.16;;;10.03
65316;BMP280;51920;53.952;10.292;2022-12-29T13:19:41;99372.13;;;9.95
65316;BMP280;51920;53.952;10.292;2022-12-29T13:22:29;99374.66;;;9.79
65316;BMP280;51920;53.952;10.292;2022-12-29T13:30:34;99392.50;;;9.38
65316;BMP280;51920;53.952;10.292;2022-12-29T13:33:17;99394.44;;;9.38
65316;BMP280;51920;53.952;10.292;2022-12-29T13:35:55;99397.63;;;9.25
65316;BMP280;51920;53.952;10.292;2022-12-29T13:38:25;99406.19;;;9.20
65316;BMP280;51920;53.952;10.292;2022-12-29T13:40:56;99402.34;;;9.18
65316;BMP280;51920;53.952;10.292;2022-12-29T13:43:22;99405.81;;;9.18
65316;BMP280;51920;53.952;10.292;2022-12-29T13:46:03;99421.50;;;9.30
65316;BMP280;51920;53.952;10.292;2022-12-29T13:48:46;99422.31;;;9.27
65316;BMP280;51920;53.952;10.292;2022-12-29T13:51:13;99423.06;;;9.28
65316;BMP280;51920;53.952;10.292;2022-12-29T13:54:17;99429.28;;;9.28
65316;BMP280;51920;53.952;10.292;2022-12-29T13:57:02;99439.38;;;9.14
65316;BMP280;51920;53.952;10.292;2022-12-29T13:59:52;99446.34;;;9.15
65316;BMP280;51920;53.952;10.292;2022-12-29T14:02:42;99466.47;;;9.03
65316;BMP280;51920;53.952;10.292;2022-12-29T14:07:44;99470.47;;;8.87
65316;BMP280;51920;53.952;10.292;2022-12-29T14:10:29;99476.72;;;8.74
65316;BMP280;51920;53.952;10.292;2022-12-29T14:13:13;99462.09;;;8.64
65316;BMP280;51920;53.952;10.292;2022-12-29T14:15:42;99477.53;;;8.67
65316;BMP280;51920;53.952;10.292;2022-12-29T14:18:14;99483.75;;;8.57
65316;BMP280;51920;53.952;10.292;2022-12-29T14:21:00;99493.78;;;8.56
65316;BMP280;51920;53.952;10.292;2022-12-29T14:26:34;99513.47;;;8.42
65316;BMP280;51920;53.952;10.292;2022-12-29T14:31:49;99515.38;;;8.53
65316;BMP280;51920;53.952;10.292;2022-12-29T14:34:25;99529.25;;;8.55
65316;BMP280;51920;53.952;10.292;2022-12-29T14:39:38;99538.53;;;8.46
65316;BMP280;51920;53.952;10.292;2022-12-29T14:44:34;99542.38;;;8.42
65316;BMP280;51920;53.952;10.292;2022-12-29T14:47:18;99537.75;;;8.42
65316;BMP280;51920;53.952;10.292;2022-12-29T14:49:45;99544.34;;;8.34
65316;BMP280;51920;53.952;10.292;2022-12-29T14:52:21;99556.69;;;8.32
65316;BMP280;51920;53.952;10.292;2022-12-29T14:54:50;99563.22;;;8.30
65316;BMP280;51920;53.952;10.292;2022-12-29T14:57:40;99574.78;;;8.45
65316;BMP280;51920;53.952;10.292;2022-12-29T15:02:40;99574.81;;;8.20
65316;BMP280;51920;53.952;10.292;2022-12-29T15:05:32;99575.59;;;8.28
65316;BMP280;51920;53.952;10.292;2022-12-29T15:07:59;99571.72;;;8.36
65316;BMP280;51920;53.952;10.292;2022-12-29T15:10:27;99579.44;;;8.38
65316;BMP280;51920;53.952;10.292;2022-12-29T15:13:03;99591.38;;;8.33
65316;BMP280;51920;53.952;10.292;2022-12-29T15:15:36;99591.34;;;8.47
65316;BMP280;51920;53.952;10.292;2022-12-29T15:18:22;99589.41;;;8.48
65316;BMP280;51920;53.952;10.292;2022-12-29T15:20:51;99589.41;;;8.44
65316;BMP280;51920;53.952;10.292;2022-12-29T15:23:18;99599.44;;;8.51
65316;BMP280;51920;53.952;10.292;2022-12-29T15:25:55;99589.41;;;8.44
65316;BMP280;51920;53.952;10.292;2022-12-29T15:28:22;99604.06;;;8.47
65316;BMP280;51920;53.952;10.292;2022-12-29T15:31:05;99611.78;;;8.45
65316;BMP280;51920;53.952;10.292;2022-12-29T15:33:30;99620.25;;;8.43
65316;BMP280;51920;53.952;10.292;2022-12-29T15:36:03;99619.50;;;8.36
65316;BMP280;51920;53.952;10.292;2022-12-29T15:38:29;99629.13;;;8.33
65316;BMP280;51920;53.952;10.292;2022-12-29T15:41:02;99628.75;;;8.31
65316;BMP280;51920;53.952;10.292;2022-12-29T15:46:22;99636.06;;;8.27
65316;BMP280;51920;53.952;10.292;2022-12-29T15:48:48;99641.47;;;8.23
65316;BMP280;51920;53.952;10.292;2022-12-29T15:51:54;99652.28;;;8.16
65316;BMP280;51920;53.952;10.292;2022-12-29T15:54:16;99653.06;;;8.17
65316;BMP280;51920;53.952;10.292;2022-12-29T15:56:42;99662.28;;;8.16
65316;BMP280;51920;53.952;10.292;2022-12-29T15:59:30;99670.75;;;8.25
65316;BMP280;51920;53.952;10.292;2022-12-29T16:01:57;99676.53;;;8.23
65316;BMP280;51920;53.952;10.292;2022-12-29T16:04:26;99681.19;;;8.19
65316;BMP280;51920;53.952;10.292;2022-12-29T16:07:01;99684.25;;;8.14
65316;BMP280;51920;53.952;10.292;2022-12-29T16:09:34;99685.81;;;8.15
65316;BMP280;51920;53.952;10.292;2022-12-29T16:12:05;99685.78;;;8.22